sensor_id;sensor_type;location;lat;lon;timestamp;P1;durP1;ratioP1;P2;durP2;ratioP2
16727;SDS011;8482;54.396;18.590;2023-12-20T15:02:25;2.97;;;1.70;;
16727;SDS011;8482;54.396;18.590;2023-12-20T15:04:51;3.73;;;1.50;;
16727;SDS011;8482;54.396;18.590;2023-12-20T15:07:17;4.63;;;2.00;;
16727;SDS011;8482;54.396;18.590;2023-12-20T15:09:44;5.37;;;1.67;;
16727;SDS011;8482;54.396;18.590;2023-12-20T15:12:12;2.55;;;1.38;;
16727;SDS011;8482;54.396;18.590;2023-12-20T15:14:38;4.50;;;1.38;;
16727;SDS011;8482;54.396;18.590;2023-12-20T15:17:04;5.85;;;2.20;;
16727;SDS011;8482;54.396;18.590;2023-12-20T15:19:30;6.40;;;2.15;;
16727;SDS011;8482;54.396;18.590;2023-12-20T15:21:57;4.60;;;1.70;;
16727;SDS011;8482;54.396;18.590;2023-12-20T15:24:25;4.28;;;2.42;;
16727;SDS011;8482;54.396;18.590;2023-12-20T15:27:03;3.92;;;2.40;;
16727;SDS011;8482;54.396;18.590;2023-12-20T15:29:30;3.40;;;1.80;;
16727;SDS011;8482;54.396;18.590;2023-12-20T15:31:56;3.83;;;1.73;;
16727;SDS011;8482;54.396;18.590;2023-12-20T15:34:22;4.85;;;2.03;;
16727;SDS011;8482;54.396;18.590;2023-12-20T15:36:47;2.22;;;1.40;;
16727;SDS011;8482;54.396;18.590;2023-12-20T15:39:13;2.83;;;1.55;;
16727;SDS011;8482;54.396;18.590;2023-12-20T15:41:39;3.75;;;1.70;;
16727;SDS011;8482;54.396;18.590;2023-12-20T15:44:05;3.63;;;1.80;;
16727;SDS011;8482;54.396;18.590;2023-12-20T15:46:31;3.83;;;1.73;;
16727;SDS011;8482;54.396;18.590;2023-12-20T15:48:57;4.22;;;2.03;;
16727;SDS011;8482;54.396;18.590;2023-12-20T15:51:23;4.40;;;1.95;;
16727;SDS011;8482;54.396;18.590;2023-12-20T15:53:49;2.97;;;1.48;;
16727;SDS011;8482;54.396;18.590;2023-12-20T15:56:19;3.05;;;1.40;;
16727;SDS011;8482;54.396;18.590;2023-12-20T15:58:45;3.22;;;1.40;;
16727;SDS011;8482;54.396;18.590;2023-12-20T16:01:13;4.82;;;1.40;;
16727;SDS011;8482;54.396;18.590;2023-12-20T16:03:39;4.18;;;1.83;;
16727;SDS011;8482;54.396;18.590;2023-12-20T16:06:05;2.65;;;1.20;;
16727;SDS011;8482;54.396;18.590;2023-12-20T16:08:32;6.05;;;1.77;;
16727;SDS011;8482;54.396;18.590;2023-12-20T16:10:58;2.65;;;1.23;;
16727;SDS011;8482;54.396;18.590;2023-12-20T16:13:24;4.28;;;2.00;;
16727;SDS011;8482;54.396;18.590;2023-12-20T16:15:49;3.63;;;1.65;;
16727;SDS011;8482;54.396;18.590;2023-12-20T16:18:15;3.40;;;1.50;;
16727;SDS011;8482;54.396;18.590;2023-12-20T16:20:41;2.97;;;1.50;;
16727;SDS011;8482;54.396;18.590;2023-12-20T16:23:07;1.77;;;1.20;;
16727;SDS011;8482;54.396;18.590;2023-12-20T16:25:33;2.92;;;1.63;;
16727;SDS011;8482;54.396;18.590;2023-12-20T16:28:02;3.38;;;1.20;;
16727;SDS011;8482;54.396;18.590;2023-12-20T16:30:30;1.40;;;0.98;;
16727;SDS011;8482;54.396;18.590;2023-12-20T16:32:56;2.28;;;1.10;;
16727;SDS011;8482;54.396;18.590;2023-12-20T16:35:22;1.88;;;1.00;;
16727;SDS011;8482;54.396;18.590;2023-12-20T16:37:47;0.90;;;0.73;;
16727;SDS011;8482;54.396;18.590;2023-12-20T16:40:13;1.23;;;0.80;;
16727;SDS011;8482;54.396;18.590;2023-12-20T16:42:40;2.15;;;1.25;;
16727;SDS011;8482;54.396;18.590;2023-12-20T16:45:05;1.45;;;0.90;;
16727;SDS011;8482;54.396;18.590;2023-12-20T16:47:32;2.67;;;1.35;;
16727;SDS011;8482;54.396;18.590;2023-12-20T16:49:58;2.63;;;1.45;;
16727;SDS011;8482;54.396;18.590;2023-12-20T16:52:25;3.85;;;1.65;;
16727;SDS011;8482;54.396;18.590;2023-12-20T16:54:51;3.10;;;1.33;;
16727;SDS011;8482;54.396;18.590;2023-12-20T16:57:17;4.78;;;1.60;;
16727;SDS011;8482;54.396;18.590;2023-12-20T16:59:46;3.10;;;1.30;;
16727;SDS011;8482;54.396;18.590;2023-12-20T17:02:12;3.30;;;1.40;;
16727;SDS011;8482;54.396;18.590;2023-12-20T17:04:38;3.47;;;1.45;;
16727;SDS011;8482;54.396;18.590;2023-12-20T17:07:04;3.78;;;1.48;;
16727;SDS011;8482;54.396;18.590;2023-12-20T17:09:30;3.38;;;1.30;;
16727;SDS011;8482;54.396;18.590;2023-12-20T17:11:56;4.18;;;1.85;;
16727;SDS011;8482;54.396;18.590;2023-12-20T17:14:22;4.13;;;1.60;;
16727;SDS011;8482;54.396;18.590;2023-12-20T17:16:48;3.33;;;1.67;;
16727;SDS011;8482;54.396;18.590;2023-12-20T17:19:15;2.70;;;1.48;;
16727;SDS011;8482;54.396;18.590;2023-12-20T17:21:41;3.38;;;1.65;;
16727;SDS011;8482;54.396;18.590;2023-12-20T17:24:07;3.95;;;1.65;;
16727;SDS011;8482;54.396;18.590;2023-12-20T17:26:33;2.97;;;1.38;;
16727;SDS011;8482;54.396;18.590;2023-12-20T17:28:59;3.13;;;1.20;;
16727;SDS011;8482;54.396;18.590;2023-12-20T17:31:25;3.40;;;1.77;;
16727;SDS011;8482;54.396;18.590;2023-12-20T17:33:50;4.05;;;1.30;;
16727;SDS011;8482;54.396;18.590;2023-12-20T17:36:16;2.53;;;1.30;;
16727;SDS011;8482;54.396;18.590;2023-12-20T17:38:42;4.05;;;1.10;;
16727;SDS011;8482;54.396;18.590;2023-12-20T17:41:08;4.45;;;1.35;;
16727;SDS011;8482;54.396;18.590;2023-12-20T17:43:34;3.67;;;1.33;;
16727;SDS011;8482;54.396;18.590;2023-12-20T17:46:00;2.60;;;1.15;;
16727;SDS011;8482;54.396;18.590;2023-12-20T17:48:25;3.80;;;1.40;;
16727;SDS011;8482;54.396;18.590;2023-12-20T17:50:51;2.47;;;1.08;;
16727;SDS011;8482;54.396;18.590;2023-12-20T17:53:17;3.60;;;1.10;;
16727;SDS011;8482;54.396;18.590;2023-12-20T17:55:43;4.35;;;1.25;;
16727;SDS011;8482;54.396;18.590;2023-12-20T17:58:09;2.65;;;1.10;;
16727;SDS011;8482;54.396;18.590;2023-12-20T18:00:35;2.90;;;1.20;;
16727;SDS011;8482;54.396;18.590;2023-12-20T18:03:02;2.38;;;0.98;;
16727;SDS011;8482;54.396;18.590;2023-12-20T18:05:28;2.80;;;1.10;;
16727;SDS011;8482;54.396;18.590;2023-12-20T18:07:54;5.70;;;1.70;;
16727;SDS011;8482;54.396;18.590;2023-12-20T18:10:20;1.63;;;1.02;;
16727;SDS011;8482;54.396;18.590;2023-12-20T18:12:47;2.13;;;1.15;;
16727;SDS011;8482;54.396;18.590;2023-12-20T18:15:13;3.55;;;1.17;;
16727;SDS011;8482;54.396;18.590;2023-12-20T18:17:40;3.05;;;1.30;;
16727;SDS011;8482;54.396;18.590;2023-12-20T18:20:06;2.88;;;1.20;;
16727;SDS011;8482;54.396;18.590;2023-12-20T18:22:33;3.60;;;1.35;;
16727;SDS011;8482;54.396;18.590;2023-12-20T18:24:59;3.50;;;1.13;;
16727;SDS011;8482;54.396;18.590;2023-12-20T18:27:25;3.53;;;1.33;;
16727;SDS011;8482;54.396;18.590;2023-12-20T18:29:51;3.25;;;1.75;;
16727;SDS011;8482;54.396;18.590;2023-12-20T18:32:17;2.67;;;1.05;;
16727;SDS011;8482;54.396;18.590;2023-12-20T18:34:43;3.38;;;1.05;;
16727;SDS011;8482;54.396;18.590;2023-12-20T18:37:10;2.67;;;1.10;;
16727;SDS011;8482;54.396;18.590;2023-12-20T18:39:37;4.13;;;1.30;;
16727;SDS011;8482;54.396;18.590;2023-12-20T18:42:06;1.98;;;1.00;;
16727;SDS011;8482;54.396;18.590;2023-12-20T18:44:33;2.42;;;1.00;;
16727;SDS011;8482;54.396;18.590;2023-12-20T18:46:59;3.75;;;1.33;;
16727;SDS011;8482;54.396;18.590;2023-12-20T18:49:25;3.37;;;1.20;;
16727;SDS011;8482;54.396;18.590;2023-12-20T18:51:51;3.70;;;1.30;;
16727;SDS011;8482;54.396;18.590;2023-12-20T18:54:18;3.72;;;1.00;;
16727;SDS011;8482;54.396;18.590;2023-12-20T18:56:45;2.08;;;1.30;;
16727;SDS011;8482;54.396;18.590;2023-12-20T18:59:13;2.53;;;1.20;;
16727;SDS011;8482;54.396;18.590;2023-12-20T19:01:42;4.83;;;1.47;;
16727;SDS011;8482;54.396;18.590;2023-12-20T19:04:08;1.53;;;1.03;;
16727;SDS011;8482;54.396;18.590;2023-12-20T19:06:34;3.25;;;1.23;;
16727;SDS011;8482;54.396;18.590;2023-12-20T19:09:00;6.53;;;1.57;;
16727;SDS011;8482;54.396;18.590;2023-12-20T19:11:26;3.47;;;1.07;;
16727;SDS011;8482;54.396;18.590;2023-12-20T19:13:51;3.28;;;1.35;;
16727;SDS011;8482;54.396;18.590;2023-12-20T19:16:17;2.67;;;1.10;;
16727;SDS011;8482;54.396;18.590;2023-12-20T19:18:43;1.25;;;0.90;;
16727;SDS011;8482;54.396;18.590;2023-12-20T19:21:11;2.57;;;1.10;;
16727;SDS011;8482;54.396;18.590;2023-12-20T19:23:36;1.60;;;1.00;;
16727;SDS011;8482;54.396;18.590;2023-12-20T19:26:02;2.20;;;1.10;;
16727;SDS011;8482;54.396;18.590;2023-12-20T19:28:29;3.47;;;1.40;;
16727;SDS011;8482;54.396;18.590;2023-12-20T19:30:55;1.93;;;1.10;;
16727;SDS011;8482;54.396;18.590;2023-12-20T19:33:24;1.87;;;1.10;;
16727;SDS011;8482;54.396;18.590;2023-12-20T19:35:50;1.53;;;0.90;;
16727;SDS011;8482;54.396;18.590;2023-12-20T19:38:16;2.57;;;1.10;;
16727;SDS011;8482;54.396;18.590;2023-12-20T19:40:41;3.23;;;1.40;;
16727;SDS011;8482;54.396;18.590;2023-12-20T19:43:07;3.88;;;1.45;;
16727;SDS011;8482;54.396;18.590;2023-12-20T19:45:34;4.13;;;1.53;;
16727;SDS011;8482;54.396;18.590;2023-12-20T19:48:00;3.10;;;1.57;;
16727;SDS011;8482;54.396;18.590;2023-12-20T19:50:26;3.40;;;1.50;;
16727;SDS011;8482;54.396;18.590;2023-12-20T19:52:52;3.83;;;1.53;;
16727;SDS011;8482;54.396;18.590;2023-12-20T19:55:17;5.63;;;2.00;;
16727;SDS011;8482;54.396;18.590;2023-12-20T19:57:43;4.13;;;1.80;;
16727;SDS011;8482;54.396;18.590;2023-12-20T20:00:09;3.53;;;1.80;;
16727;SDS011;8482;54.396;18.590;2023-12-20T20:02:36;4.10;;;2.00;;
16727;SDS011;8482;54.396;18.590;2023-12-20T20:05:03;5.20;;;2.33;;
16727;SDS011;8482;54.396;18.590;2023-12-20T20:07:32;7.37;;;2.50;;
16727;SDS011;8482;54.396;18.590;2023-12-20T20:09:58;4.57;;;2.17;;
16727;SDS011;8482;54.396;18.590;2023-12-20T20:12:24;4.53;;;2.10;;
16727;SDS011;8482;54.396;18.590;2023-12-20T20:14:50;5.00;;;2.00;;
16727;SDS011;8482;54.396;18.590;2023-12-20T20:17:16;4.93;;;2.10;;
16727;SDS011;8482;54.396;18.590;2023-12-20T20:19:42;4.17;;;1.90;;
16727;SDS011;8482;54.396;18.590;2023-12-20T20:22:08;3.60;;;1.70;;
16727;SDS011;8482;54.396;18.590;2023-12-20T20:24:36;4.40;;;1.97;;
16727;SDS011;8482;54.396;18.590;2023-12-20T20:27:02;6.57;;;2.40;;
16727;SDS011;8482;54.396;18.590;2023-12-20T20:29:29;4.17;;;2.20;;
16727;SDS011;8482;54.396;18.590;2023-12-20T20:31:55;4.90;;;2.40;;
16727;SDS011;8482;54.396;18.590;2023-12-20T20:34:21;4.63;;;1.87;;
16727;SDS011;8482;54.396;18.590;2023-12-20T20:36:52;5.13;;;2.57;;
16727;SDS011;8482;54.396;18.590;2023-12-20T20:39:21;7.27;;;2.57;;
16727;SDS011;8482;54.396;18.590;2023-12-20T20:41:48;7.43;;;2.70;;
16727;SDS011;8482;54.396;18.590;2023-12-20T20:44:14;7.33;;;2.30;;
16727;SDS011;8482;54.396;18.590;2023-12-20T20:46:40;3.83;;;1.93;;
16727;SDS011;8482;54.396;18.590;2023-12-20T20:49:07;4.30;;;1.50;;
16727;SDS011;8482;54.396;18.590;2023-12-20T20:51:32;4.43;;;1.77;;
16727;SDS011;8482;54.396;18.590;2023-12-20T20:53:58;5.57;;;1.80;;
16727;SDS011;8482;54.396;18.590;2023-12-20T20:56:24;2.63;;;1.30;;
16727;SDS011;8482;54.396;18.590;2023-12-20T20:58:50;3.57;;;2.43;;
16727;SDS011;8482;54.396;18.590;2023-12-20T21:01:18;5.07;;;2.07;;
16727;SDS011;8482;54.396;18.590;2023-12-20T21:03:44;4.00;;;1.60;;
16727;SDS011;8482;54.396;18.590;2023-12-20T21:06:10;3.03;;;1.30;;
16727;SDS011;8482;54.396;18.590;2023-12-20T21:08:36;3.90;;;1.90;;
16727;SDS011;8482;54.396;18.590;2023-12-20T21:11:02;4.07;;;1.77;;
16727;SDS011;8482;54.396;18.590;2023-12-20T21:13:28;7.17;;;2.50;;
16727;SDS011;8482;54.396;18.590;2023-12-20T21:15:55;5.07;;;2.20;;
16727;SDS011;8482;54.396;18.590;2023-12-20T21:18:21;5.07;;;2.37;;
16727;SDS011;8482;54.396;18.590;2023-12-20T21:20:47;5.17;;;2.20;;
16727;SDS011;8482;54.396;18.590;2023-12-20T21:23:16;7.77;;;3.10;;
16727;SDS011;8482;54.396;18.590;2023-12-20T21:25:42;6.07;;;2.63;;
16727;SDS011;8482;54.396;18.590;2023-12-20T21:28:09;8.48;;;3.22;;
16727;SDS011;8482;54.396;18.590;2023-12-20T21:30:36;6.63;;;2.90;;
16727;SDS011;8482;54.396;18.590;2023-12-20T21:33:03;8.60;;;2.63;;
16727;SDS011;8482;54.396;18.590;2023-12-20T21:35:29;6.60;;;2.30;;
16727;SDS011;8482;54.396;18.590;2023-12-20T21:37:55;5.63;;;2.73;;
16727;SDS011;8482;54.396;18.590;2023-12-20T21:40:22;7.17;;;2.50;;
16727;SDS011;8482;54.396;18.590;2023-12-20T21:42:48;5.93;;;2.23;;
16727;SDS011;8482;54.396;18.590;2023-12-20T21:45:14;6.47;;;2.23;;
16727;SDS011;8482;54.396;18.590;2023-12-20T21:47:40;6.50;;;2.60;;
16727;SDS011;8482;54.396;18.590;2023-12-20T21:50:07;9.53;;;4.10;;
16727;SDS011;8482;54.396;18.590;2023-12-20T21:52:33;4.60;;;2.10;;
16727;SDS011;8482;54.396;18.590;2023-12-20T21:54:59;7.33;;;3.23;;
16727;SDS011;8482;54.396;18.590;2023-12-20T21:57:25;6.50;;;2.60;;
16727;SDS011;8482;54.396;18.590;2023-12-20T21:59:51;6.57;;;2.37;;
16727;SDS011;8482;54.396;18.590;2023-12-20T22:02:17;7.63;;;2.73;;
16727;SDS011;8482;54.396;18.590;2023-12-20T22:04:43;6.47;;;2.80;;
16727;SDS011;8482;54.396;18.590;2023-12-20T22:07:09;4.63;;;2.00;;
16727;SDS011;8482;54.396;18.590;2023-12-20T22:09:35;5.03;;;2.37;;
16727;SDS011;8482;54.396;18.590;2023-12-20T22:12:01;5.60;;;2.80;;
16727;SDS011;8482;54.396;18.590;2023-12-20T22:14:28;6.03;;;3.00;;
16727;SDS011;8482;54.396;18.590;2023-12-20T22:16:55;5.30;;;2.53;;
16727;SDS011;8482;54.396;18.590;2023-12-20T22:19:22;5.53;;;2.20;;
16727;SDS011;8482;54.396;18.590;2023-12-20T22:21:48;3.43;;;1.80;;
16727;SDS011;8482;54.396;18.590;2023-12-20T22:24:14;5.67;;;2.63;;
16727;SDS011;8482;54.396;18.590;2023-12-20T22:26:40;4.63;;;1.80;;
16727;SDS011;8482;54.396;18.590;2023-12-20T22:29:06;3.07;;;1.60;;
16727;SDS011;8482;54.396;18.590;2023-12-20T22:31:31;2.63;;;1.50;;
16727;SDS011;8482;54.396;18.590;2023-12-20T22:33:57;3.83;;;1.50;;
16727;SDS011;8482;54.396;18.590;2023-12-20T22:36:23;3.03;;;1.90;;
16727;SDS011;8482;54.396;18.590;2023-12-20T22:38:50;2.53;;;1.20;;
16727;SDS011;8482;54.396;18.590;2023-12-20T22:41:18;1.37;;;0.80;;
16727;SDS011;8482;54.396;18.590;2023-12-20T22:43:44;2.60;;;1.00;;
16727;SDS011;8482;54.396;18.590;2023-12-20T22:46:10;1.00;;;0.70;;
16727;SDS011;8482;54.396;18.590;2023-12-20T22:48:36;3.40;;;1.10;;
16727;SDS011;8482;54.396;18.590;2023-12-20T22:51:03;2.43;;;1.13;;
16727;SDS011;8482;54.396;18.590;2023-12-20T22:53:29;2.10;;;1.00;;
16727;SDS011;8482;54.396;18.590;2023-12-20T22:55:55;2.03;;;0.97;;
16727;SDS011;8482;54.396;18.590;2023-12-20T22:58:21;3.00;;;1.10;;
16727;SDS011;8482;54.396;18.590;2023-12-20T23:00:47;2.70;;;1.30;;
16727;SDS011;8482;54.396;18.590;2023-12-20T23:03:14;1.90;;;1.07;;
